sensor_id;sensor_type;location;lat;lon;timestamp;P1;durP1;ratioP1;P2;durP2;ratioP2
6017;SDS011;3037;51.068;13.780;2024-03-23T00:54:38;12.37;;;8.90;;
6017;SDS011;3037;51.068;13.780;2024-03-23T00:57:03;9.70;;;7.53;;
6017;SDS011;3037;51.068;13.780;2024-03-23T00:59:29;14.07;;;9.50;;
6017;SDS011;3037;51.068;13.780;2024-03-23T01:01:56;12.93;;;8.97;;
6017;SDS011;3037;51.068;13.780;2024-03-23T01:04:21;11.33;;;8.07;;
6017;SDS011;3037;51.068;13.780;2024-03-23T01:06:47;7.97;;;7.17;;
6017;SDS011;3037;51.068;13.780;2024-03-23T01:09:12;11.50;;;9.40;;
6017;SDS011;3037;51.068;13.780;2024-03-23T01:11:38;9.30;;;8.23;;
6017;SDS011;3037;51.068;13.780;2024-03-23T01:14:04;16.10;;;8.43;;
6017;SDS011;3037;51.068;13.780;2024-03-23T01:16:30;13.73;;;8.47;;
6017;SDS011;3037;51.068;13.780;2024-03-23T01:18:55;10.97;;;8.57;;
6017;SDS011;3037;51.068;13.780;2024-03-23T01:21:21;11.47;;;8.03;;
6017;SDS011;3037;51.068;13.780;2024-03-23T01:23:46;9.80;;;8.17;;
6017;SDS011;3037;51.068;13.780;2024-03-23T01:26:12;10.33;;;8.23;;
6017;SDS011;3037;51.068;13.780;2024-03-23T01:28:37;15.87;;;8.80;;
6017;SDS011;3037;51.068;13.780;2024-03-23T01:31:03;11.00;;;9.00;;
6017;SDS011;3037;51.068;13.780;2024-03-23T01:33:28;11.87;;;8.57;;
6017;SDS011;3037;51.068;13.780;2024-03-23T01:35:54;13.10;;;8.67;;
6017;SDS011;3037;51.068;13.780;2024-03-23T01:38:19;15.20;;;9.17;;
6017;SDS011;3037;51.068;13.780;2024-03-23T01:40:45;15.93;;;8.50;;
6017;SDS011;3037;51.068;13.780;2024-03-23T01:43:11;25.93;;;10.10;;
6017;SDS011;3037;51.068;13.780;2024-03-23T01:45:36;11.50;;;9.73;;
6017;SDS011;3037;51.068;13.780;2024-03-23T01:48:02;10.77;;;9.67;;
6017;SDS011;3037;51.068;13.780;2024-03-23T01:50:29;12.43;;;8.50;;
6017;SDS011;3037;51.068;13.780;2024-03-23T01:52:58;13.90;;;9.40;;
6017;SDS011;3037;51.068;13.780;2024-03-23T01:55:24;14.33;;;9.70;;
6017;SDS011;3037;51.068;13.780;2024-03-23T01:57:50;13.20;;;9.50;;
6017;SDS011;3037;51.068;13.780;2024-03-23T02:00:15;13.57;;;10.20;;
6017;SDS011;3037;51.068;13.780;2024-03-23T02:02:44;16.20;;;10.57;;
6017;SDS011;3037;51.068;13.780;2024-03-23T02:05:11;13.27;;;10.67;;
6017;SDS011;3037;51.068;13.780;2024-03-23T02:07:40;18.70;;;11.43;;
6017;SDS011;3037;51.068;13.780;2024-03-23T02:10:07;16.70;;;11.17;;
6017;SDS011;3037;51.068;13.780;2024-03-23T02:12:40;11.60;;;10.03;;
6017;SDS011;3037;51.068;13.780;2024-03-23T02:15:06;12.07;;;10.00;;
6017;SDS011;3037;51.068;13.780;2024-03-23T02:17:34;14.63;;;11.10;;
6017;SDS011;3037;51.068;13.780;2024-03-23T02:20:00;12.23;;;10.77;;
6017;SDS011;3037;51.068;13.780;2024-03-23T02:22:38;18.00;;;11.30;;
6017;SDS011;3037;51.068;13.780;2024-03-23T02:25:04;19.00;;;10.90;;
6017;SDS011;3037;51.068;13.780;2024-03-23T02:27:31;14.27;;;11.33;;
6017;SDS011;3037;51.068;13.780;2024-03-23T02:29:57;13.67;;;10.17;;
6017;SDS011;3037;51.068;13.780;2024-03-23T02:32:23;19.60;;;13.47;;
6017;SDS011;3037;51.068;13.780;2024-03-23T02:34:48;15.67;;;11.07;;
6017;SDS011;3037;51.068;13.780;2024-03-23T02:37:14;19.17;;;12.37;;
6017;SDS011;3037;51.068;13.780;2024-03-23T02:39:39;19.37;;;12.60;;
6017;SDS011;3037;51.068;13.780;2024-03-23T02:42:05;16.03;;;12.07;;
6017;SDS011;3037;51.068;13.780;2024-03-23T02:44:31;23.50;;;13.90;;
6017;SDS011;3037;51.068;13.780;2024-03-23T02:46:56;20.33;;;12.70;;
6017;SDS011;3037;51.068;13.780;2024-03-23T02:49:22;19.20;;;12.70;;
6017;SDS011;3037;51.068;13.780;2024-03-23T02:51:47;20.00;;;12.80;;
6017;SDS011;3037;51.068;13.780;2024-03-23T02:54:14;21.03;;;12.70;;
6017;SDS011;3037;51.068;13.780;2024-03-23T02:56:39;31.00;;;13.63;;
6017;SDS011;3037;51.068;13.780;2024-03-23T02:59:05;19.60;;;12.57;;
6017;SDS011;3037;51.068;13.780;2024-03-23T03:01:30;22.47;;;15.17;;
6017;SDS011;3037;51.068;13.780;2024-03-23T03:03:56;22.57;;;14.63;;
6017;SDS011;3037;51.068;13.780;2024-03-23T03:06:25;20.83;;;13.13;;
6017;SDS011;3037;51.068;13.780;2024-03-23T03:08:51;20.63;;;14.70;;
6017;SDS011;3037;51.068;13.780;2024-03-23T03:11:16;24.30;;;15.17;;
6017;SDS011;3037;51.068;13.780;2024-03-23T03:13:42;29.40;;;18.50;;
6017;SDS011;3037;51.068;13.780;2024-03-23T03:16:10;33.87;;;20.30;;
6017;SDS011;3037;51.068;13.780;2024-03-23T03:18:36;31.00;;;19.33;;
6017;SDS011;3037;51.068;13.780;2024-03-23T03:21:02;26.17;;;16.80;;
6017;SDS011;3037;51.068;13.780;2024-03-23T03:23:30;27.23;;;15.23;;
6017;SDS011;3037;51.068;13.780;2024-03-23T03:25:55;27.60;;;16.13;;
6017;SDS011;3037;51.068;13.780;2024-03-23T03:28:21;19.60;;;14.53;;
6017;SDS011;3037;51.068;13.780;2024-03-23T03:30:46;26.13;;;16.97;;
6017;SDS011;3037;51.068;13.780;2024-03-23T03:33:12;28.43;;;19.23;;
6017;SDS011;3037;51.068;13.780;2024-03-23T03:35:37;36.70;;;16.83;;
6017;SDS011;3037;51.068;13.780;2024-03-23T03:38:04;30.10;;;17.80;;
6017;SDS011;3037;51.068;13.780;2024-03-23T03:40:29;26.57;;;17.83;;
6017;SDS011;3037;51.068;13.780;2024-03-23T03:42:55;28.23;;;18.50;;
6017;SDS011;3037;51.068;13.780;2024-03-23T03:45:20;31.20;;;18.97;;
6017;SDS011;3037;51.068;13.780;2024-03-23T03:47:46;29.90;;;18.60;;
6017;SDS011;3037;51.068;13.780;2024-03-23T03:50:11;29.63;;;19.50;;
6017;SDS011;3037;51.068;13.780;2024-03-23T03:52:37;33.13;;;19.00;;
6017;SDS011;3037;51.068;13.780;2024-03-23T03:55:02;32.53;;;19.90;;
6017;SDS011;3037;51.068;13.780;2024-03-23T03:57:28;32.40;;;19.00;;
6017;SDS011;3037;51.068;13.780;2024-03-23T03:59:54;32.77;;;20.03;;
6017;SDS011;3037;51.068;13.780;2024-03-23T04:02:19;35.67;;;21.53;;
6017;SDS011;3037;51.068;13.780;2024-03-23T04:04:45;35.40;;;20.60;;
6017;SDS011;3037;51.068;13.780;2024-03-23T04:07:10;39.43;;;22.23;;
6017;SDS011;3037;51.068;13.780;2024-03-23T04:09:36;30.50;;;19.57;;
6017;SDS011;3037;51.068;13.780;2024-03-23T04:12:01;35.10;;;20.80;;
6017;SDS011;3037;51.068;13.780;2024-03-23T04:14:27;29.83;;;19.93;;
6017;SDS011;3037;51.068;13.780;2024-03-23T04:16:52;42.60;;;22.27;;
6017;SDS011;3037;51.068;13.780;2024-03-23T04:19:18;35.23;;;21.10;;
6017;SDS011;3037;51.068;13.780;2024-03-23T04:21:43;33.87;;;21.27;;
6017;SDS011;3037;51.068;13.780;2024-03-23T04:24:09;39.73;;;24.40;;
6017;SDS011;3037;51.068;13.780;2024-03-23T04:26:41;36.27;;;22.43;;
6017;SDS011;3037;51.068;13.780;2024-03-23T04:29:07;42.60;;;24.27;;
6017;SDS011;3037;51.068;13.780;2024-03-23T04:31:32;44.33;;;26.00;;
6017;SDS011;3037;51.068;13.780;2024-03-23T04:33:59;42.40;;;23.90;;
6017;SDS011;3037;51.068;13.780;2024-03-23T04:36:25;37.93;;;23.90;;
6017;SDS011;3037;51.068;13.780;2024-03-23T04:38:51;35.40;;;22.73;;
6017;SDS011;3037;51.068;13.780;2024-03-23T04:41:17;44.17;;;25.37;;
6017;SDS011;3037;51.068;13.780;2024-03-23T04:43:43;42.43;;;25.23;;
6017;SDS011;3037;51.068;13.780;2024-03-23T04:46:09;48.27;;;27.17;;
6017;SDS011;3037;51.068;13.780;2024-03-23T04:48:34;50.77;;;26.43;;
6017;SDS011;3037;51.068;13.780;2024-03-23T04:51:00;49.07;;;27.03;;
6017;SDS011;3037;51.068;13.780;2024-03-23T04:53:25;49.30;;;26.73;;
6017;SDS011;3037;51.068;13.780;2024-03-23T04:55:54;42.13;;;25.50;;
6017;SDS011;3037;51.068;13.780;2024-03-23T04:58:20;60.53;;;26.93;;
6017;SDS011;3037;51.068;13.780;2024-03-23T05:00:47;40.60;;;26.10;;
6017;SDS011;3037;51.068;13.780;2024-03-23T05:03:12;44.47;;;26.30;;
6017;SDS011;3037;51.068;13.780;2024-03-23T05:05:37;44.37;;;25.60;;
6017;SDS011;3037;51.068;13.780;2024-03-23T05:08:04;47.20;;;27.80;;
6017;SDS011;3037;51.068;13.780;2024-03-23T05:10:30;46.97;;;26.80;;
6017;SDS011;3037;51.068;13.780;2024-03-23T05:12:57;42.97;;;26.67;;
6017;SDS011;3037;51.068;13.780;2024-03-23T05:15:23;52.07;;;27.80;;
6017;SDS011;3037;51.068;13.780;2024-03-23T05:17:48;44.60;;;27.23;;
6017;SDS011;3037;51.068;13.780;2024-03-23T05:20:13;51.27;;;28.60;;
6017;SDS011;3037;51.068;13.780;2024-03-23T05:22:39;47.27;;;26.77;;
6017;SDS011;3037;51.068;13.780;2024-03-23T05:25:05;52.27;;;28.27;;
6017;SDS011;3037;51.068;13.780;2024-03-23T05:27:31;44.73;;;27.67;;
6017;SDS011;3037;51.068;13.780;2024-03-23T05:29:58;46.43;;;28.73;;
6017;SDS011;3037;51.068;13.780;2024-03-23T05:32:23;48.37;;;28.00;;
6017;SDS011;3037;51.068;13.780;2024-03-23T05:34:49;46.10;;;28.00;;
6017;SDS011;3037;51.068;13.780;2024-03-23T05:37:20;48.73;;;28.40;;
6017;SDS011;3037;51.068;13.780;2024-03-23T05:39:46;46.20;;;28.30;;
6017;SDS011;3037;51.068;13.780;2024-03-23T05:42:13;46.73;;;27.87;;
6017;SDS011;3037;51.068;13.780;2024-03-23T05:44:39;40.77;;;24.93;;
6017;SDS011;3037;51.068;13.780;2024-03-23T05:47:05;42.17;;;27.30;;
6017;SDS011;3037;51.068;13.780;2024-03-23T05:49:30;46.67;;;26.53;;
6017;SDS011;3037;51.068;13.780;2024-03-23T05:51:56;38.70;;;23.07;;
6017;SDS011;3037;51.068;13.780;2024-03-23T05:54:21;40.83;;;23.47;;
6017;SDS011;3037;51.068;13.780;2024-03-23T05:56:47;34.03;;;21.57;;
6017;SDS011;3037;51.068;13.780;2024-03-23T05:59:12;35.53;;;22.20;;
6017;SDS011;3037;51.068;13.780;2024-03-23T06:01:38;47.43;;;26.67;;
6017;SDS011;3037;51.068;13.780;2024-03-23T06:04:04;34.70;;;22.97;;
6017;SDS011;3037;51.068;13.780;2024-03-23T06:06:29;39.63;;;24.90;;
6017;SDS011;3037;51.068;13.780;2024-03-23T06:08:58;42.27;;;24.07;;
6017;SDS011;3037;51.068;13.780;2024-03-23T06:11:23;40.67;;;25.47;;
6017;SDS011;3037;51.068;13.780;2024-03-23T06:13:49;41.80;;;25.90;;
6017;SDS011;3037;51.068;13.780;2024-03-23T06:16:14;38.80;;;26.07;;
6017;SDS011;3037;51.068;13.780;2024-03-23T06:18:40;43.37;;;27.10;;
6017;SDS011;3037;51.068;13.780;2024-03-23T06:21:08;43.17;;;28.53;;
6017;SDS011;3037;51.068;13.780;2024-03-23T06:23:38;39.47;;;25.90;;
6017;SDS011;3037;51.068;13.780;2024-03-23T06:26:03;41.57;;;25.47;;
6017;SDS011;3037;51.068;13.780;2024-03-23T06:28:29;42.33;;;25.80;;
6017;SDS011;3037;51.068;13.780;2024-03-23T06:30:54;43.20;;;25.03;;
6017;SDS011;3037;51.068;13.780;2024-03-23T06:33:20;38.87;;;22.77;;
6017;SDS011;3037;51.068;13.780;2024-03-23T06:35:49;40.23;;;23.53;;
6017;SDS011;3037;51.068;13.780;2024-03-23T06:38:18;48.93;;;26.07;;
6017;SDS011;3037;51.068;13.780;2024-03-23T06:40:44;41.30;;;24.67;;
6017;SDS011;3037;51.068;13.780;2024-03-23T06:43:15;41.37;;;25.97;;
6017;SDS011;3037;51.068;13.780;2024-03-23T06:45:41;48.93;;;25.53;;
6017;SDS011;3037;51.068;13.780;2024-03-23T06:48:06;40.33;;;26.13;;
6017;SDS011;3037;51.068;13.780;2024-03-23T06:50:35;39.40;;;26.47;;
6017;SDS011;3037;51.068;13.780;2024-03-23T06:53:01;44.37;;;26.43;;
6017;SDS011;3037;51.068;13.780;2024-03-23T06:55:27;42.73;;;26.40;;
6017;SDS011;3037;51.068;13.780;2024-03-23T06:57:53;46.17;;;26.33;;
6017;SDS011;3037;51.068;13.780;2024-03-23T07:00:18;50.87;;;26.73;;
6017;SDS011;3037;51.068;13.780;2024-03-23T07:02:44;42.47;;;26.60;;
6017;SDS011;3037;51.068;13.780;2024-03-23T07:05:10;45.33;;;26.83;;
6017;SDS011;3037;51.068;13.780;2024-03-23T07:07:36;44.20;;;26.30;;
6017;SDS011;3037;51.068;13.780;2024-03-23T07:10:03;40.10;;;24.17;;
6017;SDS011;3037;51.068;13.780;2024-03-23T07:12:30;48.73;;;26.57;;
6017;SDS011;3037;51.068;13.780;2024-03-23T07:14:55;41.00;;;25.63;;
6017;SDS011;3037;51.068;13.780;2024-03-23T07:17:21;40.37;;;23.93;;
6017;SDS011;3037;51.068;13.780;2024-03-23T07:19:46;39.73;;;24.20;;
6017;SDS011;3037;51.068;13.780;2024-03-23T07:22:12;45.33;;;25.40;;
6017;SDS011;3037;51.068;13.780;2024-03-23T07:24:38;41.40;;;24.60;;
6017;SDS011;3037;51.068;13.780;2024-03-23T07:27:04;42.00;;;24.63;;
6017;SDS011;3037;51.068;13.780;2024-03-23T07:29:30;38.93;;;23.77;;
6017;SDS011;3037;51.068;13.780;2024-03-23T07:31:55;43.60;;;25.20;;
6017;SDS011;3037;51.068;13.780;2024-03-23T07:34:21;46.20;;;25.50;;
6017;SDS011;3037;51.068;13.780;2024-03-23T07:36:46;40.50;;;25.00;;
6017;SDS011;3037;51.068;13.780;2024-03-23T07:39:12;41.73;;;24.50;;
6017;SDS011;3037;51.068;13.780;2024-03-23T07:41:37;39.87;;;23.90;;
6017;SDS011;3037;51.068;13.780;2024-03-23T07:44:03;38.47;;;23.73;;
6017;SDS011;3037;51.068;13.780;2024-03-23T07:46:28;45.60;;;26.33;;
6017;SDS011;3037;51.068;13.780;2024-03-23T07:48:54;41.17;;;25.60;;
6017;SDS011;3037;51.068;13.780;2024-03-23T07:51:22;44.93;;;27.43;;
6017;SDS011;3037;51.068;13.780;2024-03-23T07:53:48;39.80;;;24.40;;
6017;SDS011;3037;51.068;13.780;2024-03-23T07:56:14;39.13;;;24.33;;
6017;SDS011;3037;51.068;13.780;2024-03-23T07:58:41;37.80;;;24.43;;
6017;SDS011;3037;51.068;13.780;2024-03-23T08:01:08;41.97;;;24.87;;
6017;SDS011;3037;51.068;13.780;2024-03-23T08:03:39;40.40;;;24.60;;
6017;SDS011;3037;51.068;13.780;2024-03-23T08:06:15;38.00;;;24.10;;
6017;SDS011;3037;51.068;13.780;2024-03-23T08:08:42;41.33;;;24.40;;
6017;SDS011;3037;51.068;13.780;2024-03-23T08:11:08;38.50;;;25.30;;
6017;SDS011;3037;51.068;13.780;2024-03-23T08:13:34;40.30;;;25.77;;
6017;SDS011;3037;51.068;13.780;2024-03-23T08:16:01;36.27;;;23.10;;
6017;SDS011;3037;51.068;13.780;2024-03-23T08:18:28;38.83;;;25.20;;
6017;SDS011;3037;51.068;13.780;2024-03-23T08:20:57;38.07;;;23.70;;
6017;SDS011;3037;51.068;13.780;2024-03-23T08:23:24;38.07;;;24.40;;
6017;SDS011;3037;51.068;13.780;2024-03-23T08:25:51;36.73;;;24.23;;
6017;SDS011;3037;51.068;13.780;2024-03-23T08:28:17;39.30;;;23.07;;
6017;SDS011;3037;51.068;13.780;2024-03-23T08:30:42;34.00;;;22.73;;
6017;SDS011;3037;51.068;13.780;2024-03-23T08:33:08;34.63;;;21.87;;
6017;SDS011;3037;51.068;13.780;2024-03-23T08:35:33;35.97;;;24.50;;
6017;SDS011;3037;51.068;13.780;2024-03-23T08:37:59;34.63;;;23.07;;
6017;SDS011;3037;51.068;13.780;2024-03-23T08:40:25;38.60;;;22.63;;
6017;SDS011;3037;51.068;13.780;2024-03-23T08:42:50;39.80;;;24.00;;
6017;SDS011;3037;51.068;13.780;2024-03-23T08:45:16;38.07;;;24.57;;
6017;SDS011;3037;51.068;13.780;2024-03-23T08:47:41;35.10;;;23.10;;
6017;SDS011;3037;51.068;13.780;2024-03-23T08:50:07;33.80;;;22.43;;
6017;SDS011;3037;51.068;13.780;2024-03-23T08:52:33;33.07;;;22.90;;
6017;SDS011;3037;51.068;13.780;2024-03-23T08:54:58;32.80;;;22.23;;
6017;SDS011;3037;51.068;13.780;2024-03-23T08:57:24;30.90;;;20.57;;
6017;SDS011;3037;51.068;13.780;2024-03-23T08:59:49;39.07;;;21.13;;
6017;SDS011;3037;51.068;13.780;2024-03-23T09:02:15;32.37;;;21.17;;
6017;SDS011;3037;51.068;13.780;2024-03-23T09:04:41;31.63;;;19.73;;
6017;SDS011;3037;51.068;13.780;2024-03-23T09:07:06;30.43;;;20.63;;
6017;SDS011;3037;51.068;13.780;2024-03-23T09:09:32;28.57;;;19.97;;
6017;SDS011;3037;51.068;13.780;2024-03-23T09:11:57;29.60;;;18.33;;
6017;SDS011;3037;51.068;13.780;2024-03-23T09:14:22;33.27;;;20.23;;
6017;SDS011;3037;51.068;13.780;2024-03-23T09:16:51;35.47;;;19.30;;
6017;SDS011;3037;51.068;13.780;2024-03-23T09:19:16;33.53;;;18.27;;
6017;SDS011;3037;51.068;13.780;2024-03-23T09:21:42;34.10;;;19.43;;
6017;SDS011;3037;51.068;13.780;2024-03-23T09:24:08;31.03;;;18.30;;
6017;SDS011;3037;51.068;13.780;2024-03-23T09:26:33;29.67;;;18.50;;
6017;SDS011;3037;51.068;13.780;2024-03-23T09:28:59;24.70;;;17.73;;
6017;SDS011;3037;51.068;13.780;2024-03-23T09:31:24;38.67;;;19.07;;
6017;SDS011;3037;51.068;13.780;2024-03-23T09:33:50;30.83;;;17.13;;
6017;SDS011;3037;51.068;13.780;2024-03-23T09:36:15;21.13;;;14.23;;
6017;SDS011;3037;51.068;13.780;2024-03-23T09:38:41;19.53;;;14.00;;
6017;SDS011;3037;51.068;13.780;2024-03-23T09:41:07;17.47;;;12.83;;
6017;SDS011;3037;51.068;13.780;2024-03-23T09:43:33;24.90;;;11.93;;
6017;SDS011;3037;51.068;13.780;2024-03-23T09:45:59;18.80;;;12.37;;
6017;SDS011;3037;51.068;13.780;2024-03-23T09:48:27;16.27;;;12.27;;
6017;SDS011;3037;51.068;13.780;2024-03-23T09:50:53;16.53;;;12.97;;
6017;SDS011;3037;51.068;13.780;2024-03-23T09:53:18;23.60;;;12.70;;
6017;SDS011;3037;51.068;13.780;2024-03-23T09:55:44;21.23;;;13.70;;
6017;SDS011;3037;51.068;13.780;2024-03-23T09:58:13;19.83;;;12.83;;
6017;SDS011;3037;51.068;13.780;2024-03-23T10:00:40;22.37;;;13.30;;
6017;SDS011;3037;51.068;13.780;2024-03-23T10:03:05;12.33;;;9.10;;
6017;SDS011;3037;51.068;13.780;2024-03-23T10:05:32;14.33;;;8.80;;
6017;SDS011;3037;51.068;13.780;2024-03-23T10:08:00;9.17;;;5.43;;
6017;SDS011;3037;51.068;13.780;2024-03-23T10:10:41;8.43;;;3.97;;
6017;SDS011;3037;51.068;13.780;2024-03-23T10:13:08;8.57;;;4.07;;
6017;SDS011;3037;51.068;13.780;2024-03-23T10:15:34;4.30;;;2.70;;
6017;SDS011;3037;51.068;13.780;2024-03-23T10:18:21;4.07;;;2.60;;
6017;SDS011;3037;51.068;13.780;2024-03-23T10:21:06;6.40;;;2.60;;
6017;SDS011;3037;51.068;13.780;2024-03-23T10:23:40;1.70;;;1.60;;
6017;SDS011;3037;51.068;13.780;2024-03-23T10:26:16;1.20;;;1.20;;
6017;SDS011;3037;51.068;13.780;2024-03-23T10:29:17;1.07;;;0.97;;
6017;SDS011;3037;51.068;13.780;2024-03-23T10:31:37;1.60;;;1.50;;
6017;SDS011;3037;51.068;13.780;2024-03-23T10:34:06;1.70;;;1.20;;
6017;SDS011;3037;51.068;13.780;2024-03-23T10:36:32;1.17;;;1.17;;
6017;SDS011;3037;51.068;13.780;2024-03-23T10:39:00;0.90;;;0.90;;
6017;SDS011;3037;51.068;13.780;2024-03-23T10:41:26;0.90;;;0.90;;
6017;SDS011;3037;51.068;13.780;2024-03-23T10:43:54;0.90;;;0.90;;
6017;SDS011;3037;51.068;13.780;2024-03-23T10:46:22;2.30;;;1.30;;
6017;SDS011;3037;51.068;13.780;2024-03-23T10:48:48;1.00;;;1.00;;
6017;SDS011;3037;51.068;13.780;2024-03-23T10:51:14;1.43;;;0.70;;
6017;SDS011;3037;51.068;13.780;2024-03-23T10:53:40;0.73;;;0.73;;
6017;SDS011;3037;51.068;13.780;2024-03-23T10:56:06;0.80;;;0.80;;
6017;SDS011;3037;51.068;13.780;2024-03-23T10:58:34;0.77;;;0.77;;
6017;SDS011;3037;51.068;13.780;2024-03-23T11:01:04;2.70;;;1.00;;
6017;SDS011;3037;51.068;13.780;2024-03-23T11:03:30;0.70;;;0.70;;
6017;SDS011;3037;51.068;13.780;2024-03-23T11:06:00;1.00;;;1.00;;
6017;SDS011;3037;51.068;13.780;2024-03-23T11:08:29;1.00;;;0.73;;
6017;SDS011;3037;51.068;13.780;2024-03-23T11:11:11;1.10;;;1.10;;
6017;SDS011;3037;51.068;13.780;2024-03-23T11:13:36;1.00;;;0.80;;
6017;SDS011;3037;51.068;13.780;2024-03-23T11:18:48;0.87;;;0.87;;
6017;SDS011;3037;51.068;13.780;2024-03-23T11:21:51;0.93;;;0.93;;
6017;SDS011;3037;51.068;13.780;2024-03-23T11:24:18;1.80;;;0.80;;
6017;SDS011;3037;51.068;13.780;2024-03-23T11:26:45;0.70;;;0.70;;
6017;SDS011;3037;51.068;13.780;2024-03-23T11:29:12;0.80;;;0.80;;
6017;SDS011;3037;51.068;13.780;2024-03-23T11:31:38;1.80;;;0.93;;
6017;SDS011;3037;51.068;13.780;2024-03-23T11:34:10;1.37;;;1.10;;
6017;SDS011;3037;51.068;13.780;2024-03-23T11:36:36;1.40;;;1.30;;
6017;SDS011;3037;51.068;13.780;2024-03-23T11:39:11;0.80;;;0.80;;
6017;SDS011;3037;51.068;13.780;2024-03-23T11:41:47;0.70;;;0.70;;
6017;SDS011;3037;51.068;13.780;2024-03-23T11:44:20;0.90;;;0.90;;
6017;SDS011;3037;51.068;13.780;2024-03-23T11:46:47;1.50;;;0.93;;
6017;SDS011;3037;51.068;13.780;2024-03-23T11:49:25;1.13;;;1.13;;
6017;SDS011;3037;51.068;13.780;2024-03-23T11:51:52;0.80;;;0.80;;
6017;SDS011;3037;51.068;13.780;2024-03-23T11:54:23;0.80;;;0.80;;
6017;SDS011;3037;51.068;13.780;2024-03-23T11:56:59;1.20;;;1.10;;
6017;SDS011;3037;51.068;13.780;2024-03-23T11:59:32;1.40;;;1.33;;
6017;SDS011;3037;51.068;13.780;2024-03-23T12:01:58;0.90;;;0.90;;
6017;SDS011;3037;51.068;13.780;2024-03-23T12:04:27;1.30;;;1.20;;
6017;SDS011;3037;51.068;13.780;2024-03-23T12:09:43;1.47;;;1.37;;
6017;SDS011;3037;51.068;13.780;2024-03-23T12:12:13;5.90;;;1.23;;
6017;SDS011;3037;51.068;13.780;2024-03-23T12:14:40;1.13;;;1.13;;
6017;SDS011;3037;51.068;13.780;2024-03-23T12:17:14;1.00;;;1.00;;
6017;SDS011;3037;51.068;13.780;2024-03-23T12:19:40;4.83;;;1.10;;
6017;SDS011;3037;51.068;13.780;2024-03-23T12:22:07;2.80;;;1.10;;
6017;SDS011;3037;51.068;13.780;2024-03-23T12:24:33;0.93;;;0.93;;
6017;SDS011;3037;51.068;13.780;2024-03-23T12:27:03;1.30;;;1.20;;
6017;SDS011;3037;51.068;13.780;2024-03-23T12:29:32;0.80;;;0.80;;
6017;SDS011;3037;51.068;13.780;2024-03-23T12:32:02;1.07;;;1.07;;
6017;SDS011;3037;51.068;13.780;2024-03-23T12:34:28;1.07;;;1.07;;
6017;SDS011;3037;51.068;13.780;2024-03-23T12:36:55;1.20;;;1.10;;
6017;SDS011;3037;51.068;13.780;2024-03-23T12:39:21;1.13;;;1.13;;
6017;SDS011;3037;51.068;13.780;2024-03-23T12:41:47;1.10;;;1.10;;
6017;SDS011;3037;51.068;13.780;2024-03-23T12:44:13;1.30;;;1.30;;
6017;SDS011;3037;51.068;13.780;2024-03-23T12:46:40;3.53;;;1.23;;
6017;SDS011;3037;51.068;13.780;2024-03-23T12:49:06;1.70;;;1.63;;
6017;SDS011;3037;51.068;13.780;2024-03-23T12:51:31;1.23;;;1.20;;
6017;SDS011;3037;51.068;13.780;2024-03-23T12:53:57;1.17;;;1.17;;
6017;SDS011;3037;51.068;13.780;2024-03-23T12:56:23;1.60;;;1.60;;
6017;SDS011;3037;51.068;13.780;2024-03-23T12:58:48;1.10;;;1.10;;
6017;SDS011;3037;51.068;13.780;2024-03-23T13:01:16;1.67;;;1.63;;
6017;SDS011;3037;51.068;13.780;2024-03-23T13:03:42;1.67;;;1.53;;
6017;SDS011;3037;51.068;13.780;2024-03-23T13:06:09;1.63;;;1.63;;
6017;SDS011;3037;51.068;13.780;2024-03-23T13:08:35;2.20;;;2.10;;
6017;SDS011;3037;51.068;13.780;2024-03-23T13:11:00;2.07;;;2.07;;
6017;SDS011;3037;51.068;13.780;2024-03-23T13:13:26;2.00;;;1.90;;
6017;SDS011;3037;51.068;13.780;2024-03-23T13:15:51;2.40;;;2.30;;
6017;SDS011;3037;51.068;13.780;2024-03-23T13:18:17;1.90;;;1.80;;
6017;SDS011;3037;51.068;13.780;2024-03-23T13:20:43;2.33;;;2.23;;
6017;SDS011;3037;51.068;13.780;2024-03-23T13:23:09;1.90;;;1.90;;
6017;SDS011;3037;51.068;13.780;2024-03-23T13:25:34;2.17;;;2.17;;
6017;SDS011;3037;51.068;13.780;2024-03-23T13:28:00;4.00;;;1.80;;
6017;SDS011;3037;51.068;13.780;2024-03-23T13:30:26;1.97;;;1.87;;
6017;SDS011;3037;51.068;13.780;2024-03-23T13:32:52;2.00;;;1.90;;
6017;SDS011;3037;51.068;13.780;2024-03-23T13:35:17;1.70;;;1.60;;
6017;SDS011;3037;51.068;13.780;2024-03-23T13:37:43;1.80;;;1.70;;
6017;SDS011;3037;51.068;13.780;2024-03-23T13:40:08;3.10;;;1.97;;
6017;SDS011;3037;51.068;13.780;2024-03-23T13:42:34;2.77;;;2.10;;
6017;SDS011;3037;51.068;13.780;2024-03-23T13:45:00;6.43;;;1.70;;
6017;SDS011;3037;51.068;13.780;2024-03-23T13:47:25;2.77;;;1.87;;
6017;SDS011;3037;51.068;13.780;2024-03-23T13:49:51;2.73;;;1.83;;
6017;SDS011;3037;51.068;13.780;2024-03-23T13:52:16;1.40;;;1.30;;
6017;SDS011;3037;51.068;13.780;2024-03-23T13:54:47;5.10;;;2.10;;
6017;SDS011;3037;51.068;13.780;2024-03-23T13:57:13;2.80;;;2.00;;
6017;SDS011;3037;51.068;13.780;2024-03-23T13:59:38;1.63;;;1.50;;
6017;SDS011;3037;51.068;13.780;2024-03-23T14:02:04;1.70;;;1.60;;
6017;SDS011;3037;51.068;13.780;2024-03-23T14:04:29;5.53;;;2.40;;
6017;SDS011;3037;51.068;13.780;2024-03-23T14:06:55;1.30;;;1.20;;
6017;SDS011;3037;51.068;13.780;2024-03-23T14:09:20;6.60;;;1.70;;
6017;SDS011;3037;51.068;13.780;2024-03-23T14:11:48;1.77;;;1.50;;
6017;SDS011;3037;51.068;13.780;2024-03-23T14:14:13;3.50;;;1.37;;
6017;SDS011;3037;51.068;13.780;2024-03-23T14:16:42;4.23;;;1.90;;
6017;SDS011;3037;51.068;13.780;2024-03-23T14:19:08;5.23;;;1.60;;
6017;SDS011;3037;51.068;13.780;2024-03-23T14:21:33;11.33;;;1.83;;
6017;SDS011;3037;51.068;13.780;2024-03-23T14:24:03;2.50;;;1.30;;
6017;SDS011;3037;51.068;13.780;2024-03-23T14:26:29;3.40;;;1.50;;
6017;SDS011;3037;51.068;13.780;2024-03-23T14:28:54;6.30;;;1.70;;
6017;SDS011;3037;51.068;13.780;2024-03-23T14:31:20;2.30;;;1.50;;
6017;SDS011;3037;51.068;13.780;2024-03-23T14:33:45;2.10;;;1.90;;
6017;SDS011;3037;51.068;13.780;2024-03-23T14:36:14;4.67;;;1.87;;
6017;SDS011;3037;51.068;13.780;2024-03-23T14:38:41;7.77;;;2.03;;
6017;SDS011;3037;51.068;13.780;2024-03-23T14:41:07;1.93;;;1.50;;
6017;SDS011;3037;51.068;13.780;2024-03-23T14:43:33;2.73;;;1.37;;
6017;SDS011;3037;51.068;13.780;2024-03-23T14:46:14;2.40;;;1.63;;
6017;SDS011;3037;51.068;13.780;2024-03-23T14:48:41;4.10;;;1.73;;
6017;SDS011;3037;51.068;13.780;2024-03-23T14:51:11;2.87;;;1.60;;
6017;SDS011;3037;51.068;13.780;2024-03-23T14:53:38;6.60;;;2.30;;
6017;SDS011;3037;51.068;13.780;2024-03-23T14:56:05;4.10;;;1.90;;
6017;SDS011;3037;51.068;13.780;2024-03-23T14:58:31;3.80;;;2.10;;
6017;SDS011;3037;51.068;13.780;2024-03-23T15:01:00;4.47;;;2.80;;
6017;SDS011;3037;51.068;13.780;2024-03-23T15:03:26;3.37;;;2.10;;
6017;SDS011;3037;51.068;13.780;2024-03-23T15:05:53;6.20;;;1.57;;
6017;SDS011;3037;51.068;13.780;2024-03-23T15:08:22;10.93;;;3.67;;
6017;SDS011;3037;51.068;13.780;2024-03-23T15:10:47;4.30;;;2.90;;
6017;SDS011;3037;51.068;13.780;2024-03-23T15:13:13;23.50;;;4.13;;
6017;SDS011;3037;51.068;13.780;2024-03-23T15:15:42;4.70;;;2.53;;
6017;SDS011;3037;51.068;13.780;2024-03-23T15:18:12;2.33;;;2.20;;
6017;SDS011;3037;51.068;13.780;2024-03-23T15:20:39;8.30;;;2.23;;
6017;SDS011;3037;51.068;13.780;2024-03-23T15:23:16;4.80;;;2.50;;
6017;SDS011;3037;51.068;13.780;2024-03-23T15:25:42;3.90;;;2.00;;
6017;SDS011;3037;51.068;13.780;2024-03-23T15:28:07;3.33;;;2.00;;
6017;SDS011;3037;51.068;13.780;2024-03-23T15:30:33;9.77;;;2.33;;
6017;SDS011;3037;51.068;13.780;2024-03-23T15:32:58;2.50;;;2.07;;
6017;SDS011;3037;51.068;13.780;2024-03-23T15:35:24;3.60;;;1.80;;
6017;SDS011;3037;51.068;13.780;2024-03-23T15:37:50;5.17;;;1.70;;
6017;SDS011;3037;51.068;13.780;2024-03-23T15:40:15;6.93;;;2.27;;
6017;SDS011;3037;51.068;13.780;2024-03-23T15:42:41;2.10;;;1.90;;